createdAt,value
2023-01-21T00:01:10.658Z,107.00
2023-01-21T00:03:37.993Z,72.90
2023-01-21T00:06:05.270Z,92.90
2023-01-21T00:08:31.981Z,94.00
2023-01-21T00:11:09.231Z,97.20
2023-01-21T00:13:36.698Z,98.90
2023-01-21T00:16:04.797Z,94.10
2023-01-21T00:18:31.996Z,97.40
2023-01-21T00:20:58.603Z,94.40
2023-01-21T00:23:25.318Z,88.30
2023-01-21T00:26:00.607Z,91.10
2023-01-21T00:28:28.661Z,79.10
2023-01-21T00:31:00.181Z,66.50
2023-01-21T00:33:29.185Z,85.40
2023-01-21T00:36:01.156Z,92.10
2023-01-21T00:38:28.951Z,82.20
2023-01-21T00:41:07.439Z,76.60
2023-01-21T00:43:34.666Z,78.00
2023-01-21T00:46:01.331Z,77.60
2023-01-21T00:48:28.327Z,81.50
2023-01-21T00:50:58.307Z,76.50
2023-01-21T00:53:25.557Z,75.80
2023-01-21T00:55:52.301Z,78.90
2023-01-21T00:58:19.592Z,79.10
2023-01-21T01:00:46.262Z,75.20
2023-01-21T01:03:12.780Z,77.20
2023-01-21T01:05:39.283Z,73.80
2023-01-21T01:08:06.005Z,76.50
2023-01-21T01:10:32.557Z,72.40
2023-01-21T01:13:00.185Z,67.40
2023-01-21T01:15:26.669Z,69.40
2023-01-21T01:17:53.157Z,70.60
2023-01-21T01:20:19.703Z,71.30
2023-01-21T01:22:46.319Z,72.40
2023-01-21T01:25:13.025Z,69.40
2023-01-21T01:27:39.595Z,62.60
2023-01-21T01:30:09.332Z,69.20
2023-01-21T01:32:35.892Z,63.20
2023-01-21T01:35:02.476Z,61.80
2023-01-21T01:37:29.012Z,63.70
2023-01-21T01:39:55.682Z,65.70
2023-01-21T01:42:22.355Z,64.60
2023-01-21T01:44:57.112Z,61.80
2023-01-21T01:47:59.221Z,66.90
2023-01-21T01:50:34.614Z,64.50
2023-01-21T01:53:01.718Z,64.50
2023-01-21T01:55:33.805Z,60.50
2023-01-21T01:58:02.526Z,66.30
2023-01-21T02:00:29.203Z,64.20
2023-01-21T02:03:15.141Z,65.30
2023-01-21T02:05:43.419Z,67.90
2023-01-21T02:08:10.259Z,64.10
2023-01-21T02:10:36.949Z,61.70
2023-01-21T02:13:03.953Z,55.80
2023-01-21T02:16:06.203Z,56.50
2023-01-21T02:18:38.300Z,58.50
2023-01-21T02:21:33.300Z,59.10
2023-01-21T02:24:32.961Z,54.20
2023-01-21T02:27:11.681Z,59.30
2023-01-21T02:30:12.410Z,61.60
2023-01-21T02:33:13.063Z,59.50
2023-01-21T02:35:47.651Z,62.80
2023-01-21T02:38:29.387Z,58.10
2023-01-21T02:41:27.502Z,56.50
2023-01-21T02:44:03.298Z,50.40
2023-01-21T02:46:54.751Z,51.80
2023-01-21T02:49:31.560Z,49.50
2023-01-21T02:51:58.346Z,49.50
2023-01-21T02:54:40.134Z,46.80
2023-01-21T02:57:13.488Z,47.60
2023-01-21T02:59:45.216Z,48.00
2023-01-21T03:02:17.495Z,45.00
2023-01-21T03:04:53.292Z,47.30
2023-01-21T03:07:34.145Z,49.00
2023-01-21T03:10:31.223Z,44.20
2023-01-21T03:13:03.215Z,45.10
2023-01-21T03:16:01.987Z,45.70
2023-01-21T03:18:30.721Z,45.50
2023-01-21T03:21:08.361Z,45.60
2023-01-21T03:23:39.515Z,39.60
2023-01-21T03:26:08.909Z,44.50
2023-01-21T03:28:43.353Z,41.90
2023-01-21T03:31:15.949Z,37.10
2023-01-21T03:33:47.703Z,39.20
2023-01-21T03:36:38.361Z,43.50
2023-01-21T03:39:15.190Z,46.10
2023-01-21T03:41:42.060Z,41.50
2023-01-21T03:44:08.739Z,44.70
2023-01-21T03:47:01.195Z,46.00
2023-01-21T03:49:37.210Z,46.60
2023-01-21T03:52:05.773Z,42.10
2023-01-21T03:54:32.548Z,41.60
2023-01-21T03:56:59.078Z,46.00
2023-01-21T03:59:25.630Z,47.70
2023-01-21T04:01:52.327Z,52.60
2023-01-21T04:04:18.840Z,51.30
2023-01-21T04:06:45.375Z,48.30
2023-01-21T04:09:11.983Z,53.80
2023-01-21T04:11:38.504Z,49.10
2023-01-21T04:14:05.078Z,46.10
2023-01-21T04:16:31.611Z,53.20
2023-01-21T04:18:58.168Z,46.90
2023-01-21T04:21:24.778Z,50.40
2023-01-21T04:23:51.279Z,49.90
2023-01-21T04:26:17.878Z,82.20
2023-01-21T04:28:44.408Z,119.50
2023-01-21T04:31:10.928Z,130.00
2023-01-21T04:33:37.477Z,76.00
2023-01-21T04:36:04.299Z,75.40
2023-01-21T04:38:31.028Z,57.90
2023-01-21T04:40:57.594Z,53.20
2023-01-21T04:43:24.212Z,46.40
2023-01-21T04:45:50.959Z,52.50
2023-01-21T04:48:17.601Z,49.20
2023-01-21T04:50:45.962Z,48.80
2023-01-21T04:53:12.700Z,53.00
2023-01-21T04:55:39.198Z,50.60
2023-01-21T04:58:05.995Z,51.50
2023-01-21T05:00:32.738Z,49.20
2023-01-21T05:02:59.395Z,47.90
2023-01-21T05:05:25.876Z,50.40
2023-01-21T05:07:53.692Z,45.40
2023-01-21T05:10:20.306Z,46.90
2023-01-21T05:12:47.906Z,48.40
2023-01-21T05:15:14.663Z,44.50
2023-01-21T05:17:41.245Z,44.10
2023-01-21T05:20:08.797Z,44.50
2023-01-21T05:22:35.432Z,46.40
2023-01-21T05:25:02.026Z,52.10
2023-01-21T05:27:28.602Z,62.70
2023-01-21T05:29:56.376Z,64.00
2023-01-21T05:32:23.594Z,75.30
2023-01-21T05:34:50.167Z,44.50
2023-01-21T05:37:16.711Z,43.30
2023-01-21T05:39:43.924Z,48.30
2023-01-21T05:42:10.565Z,42.60
2023-01-21T05:44:37.126Z,37.70
2023-01-21T05:47:03.639Z,38.70
2023-01-21T05:49:30.224Z,40.50
2023-01-21T05:51:56.793Z,38.50
2023-01-21T05:54:23.264Z,41.80
2023-01-21T05:56:49.809Z,46.30
2023-01-21T05:59:16.315Z,46.00
2023-01-21T06:01:42.935Z,42.50
2023-01-21T06:04:09.471Z,42.40
2023-01-21T06:06:36.190Z,43.30
2023-01-21T06:09:02.987Z,39.70
2023-01-21T06:11:29.602Z,38.10
2023-01-21T06:13:56.151Z,37.40
2023-01-21T06:16:22.745Z,36.80
2023-01-21T06:18:49.293Z,38.70
2023-01-21T06:21:15.835Z,39.30
2023-01-21T06:23:42.452Z,39.50
2023-01-21T06:26:09.012Z,45.30
2023-01-21T06:28:35.556Z,54.10
2023-01-21T06:31:02.205Z,43.10
2023-01-21T06:33:28.979Z,47.10
2023-01-21T06:35:55.550Z,41.30
2023-01-21T06:38:22.033Z,36.50
2023-01-21T06:40:48.591Z,35.90
2023-01-21T06:43:15.162Z,36.80
2023-01-21T06:45:41.730Z,35.50
2023-01-21T06:48:08.423Z,32.40
2023-01-21T06:50:35.297Z,32.70
2023-01-21T06:53:01.947Z,32.70
2023-01-21T06:55:28.608Z,35.20
2023-01-21T06:57:55.172Z,34.30
2023-01-21T07:00:21.837Z,33.10
2023-01-21T07:02:48.426Z,32.70
2023-01-21T07:05:15.551Z,36.60
2023-01-21T07:07:42.373Z,37.60
2023-01-21T07:10:09.889Z,36.40
2023-01-21T07:12:36.611Z,38.20
2023-01-21T07:15:03.706Z,37.90
2023-01-21T07:17:30.276Z,40.30
2023-01-21T07:19:56.862Z,43.10
2023-01-21T07:22:23.407Z,41.90
2023-01-21T07:24:50.067Z,34.60
2023-01-21T07:27:16.648Z,33.30
2023-01-21T07:29:43.217Z,37.70
2023-01-21T07:32:09.738Z,35.40
2023-01-21T07:34:36.296Z,30.30
2023-01-21T07:37:02.815Z,34.30
2023-01-21T07:39:29.447Z,39.00
2023-01-21T07:41:55.962Z,32.60
2023-01-21T07:44:22.553Z,39.90
2023-01-21T07:46:49.167Z,31.90
2023-01-21T07:49:17.645Z,34.70
2023-01-21T07:51:44.764Z,33.20
2023-01-21T07:54:12.553Z,33.60
2023-01-21T07:56:39.893Z,33.70
2023-01-21T07:59:06.758Z,30.60
2023-01-21T08:01:33.436Z,33.90
2023-01-21T08:04:00.162Z,30.00
2023-01-21T08:06:26.817Z,31.00
2023-01-21T08:08:53.402Z,32.50
2023-01-21T08:11:19.963Z,33.80
2023-01-21T08:13:49.186Z,36.30
2023-01-21T08:16:15.883Z,31.30
2023-01-21T08:18:42.529Z,27.40
2023-01-21T08:21:09.080Z,32.60
2023-01-21T08:23:35.881Z,33.70
2023-01-21T08:26:03.822Z,30.10
2023-01-21T08:28:30.620Z,30.40
2023-01-21T08:31:10.014Z,31.30
2023-01-21T08:33:37.110Z,29.90
2023-01-21T08:36:05.540Z,29.50
2023-01-21T08:38:33.273Z,31.70
2023-01-21T08:41:00.065Z,30.60
2023-01-21T11:27:38.976Z,16.90
2023-01-21T11:30:44.488Z,18.00
2023-01-21T11:33:25.889Z,20.20
2023-01-21T11:35:54.655Z,24.30
2023-01-21T11:38:33.501Z,21.40
2023-01-21T11:41:11.001Z,20.30
2023-01-21T11:43:49.448Z,20.80
2023-01-21T11:46:35.463Z,21.50
2023-01-21T11:49:04.950Z,19.70
2023-01-21T11:51:32.267Z,19.60
2023-01-21T11:54:11.266Z,20.60
2023-01-21T11:56:38.990Z,21.40
2023-01-21T11:59:34.699Z,19.80
2023-01-21T12:02:11.886Z,18.50
2023-01-21T12:04:46.114Z,18.10
2023-01-21T12:07:26.996Z,19.90
2023-01-21T12:10:46.290Z,19.10
2023-01-21T12:13:19.524Z,14.80
2023-01-21T12:16:17.480Z,15.70
2023-01-21T12:19:22.287Z,17.60
2023-01-21T12:22:07.446Z,16.10
2023-01-21T12:24:58.178Z,19.20
2023-01-21T12:27:34.227Z,18.90
2023-01-21T12:30:15.064Z,18.10
2023-01-21T12:32:45.258Z,17.60
2023-01-21T12:35:36.473Z,15.90
2023-01-21T12:38:11.673Z,20.10
2023-01-21T12:41:00.113Z,17.50
2023-01-21T12:43:43.380Z,18.00
2023-01-21T12:46:22.794Z,22.10
2023-01-21T12:49:02.874Z,17.50
2023-01-21T12:51:40.186Z,15.60
2023-01-21T12:54:20.696Z,16.20
2023-01-21T12:56:56.520Z,14.70
2023-01-21T12:59:32.661Z,15.60
2023-01-21T13:02:04.801Z,13.90
2023-01-21T13:05:02.618Z,17.40
2023-01-21T13:07:44.105Z,17.00
2023-01-21T13:10:29.180Z,14.30
2023-01-21T13:13:02.868Z,11.90
2023-01-21T13:15:38.849Z,14.30
2023-01-21T13:18:13.979Z,15.30
2023-01-21T13:20:53.793Z,13.70
2023-01-21T13:23:32.732Z,12.30
2023-01-21T13:26:12.279Z,13.10
2023-01-21T13:28:49.448Z,11.70
2023-01-21T13:31:34.962Z,12.00
2023-01-21T13:34:20.228Z,9.50
2023-01-21T13:37:03.145Z,12.30
2023-01-21T13:39:48.884Z,12.40
2023-01-21T13:42:23.181Z,12.50
2023-01-21T13:45:07.029Z,11.40
2023-01-21T13:50:21.049Z,10.60
2023-01-21T13:53:12.478Z,8.10
2023-01-21T13:55:52.788Z,7.50
2023-01-21T13:58:57.150Z,8.80
2023-01-21T14:01:43.655Z,9.60
2023-01-21T14:04:42.329Z,11.60
2023-01-21T14:07:23.394Z,15.40
2023-01-21T14:09:59.532Z,15.70
2023-01-21T14:12:50.223Z,11.50
2023-01-21T14:15:29.007Z,8.10
2023-01-21T14:18:17.229Z,7.50
2023-01-21T14:21:05.516Z,7.30
2023-01-21T14:23:59.830Z,6.80
2023-01-21T14:26:56.595Z,7.30
2023-01-21T14:29:35.510Z,8.60
2023-01-21T14:32:23.421Z,7.90
2023-01-21T14:35:23.019Z,8.50
2023-01-21T14:37:55.006Z,8.80
2023-01-21T14:40:31.591Z,9.70
2023-01-21T14:42:58.735Z,9.00
2023-01-21T14:45:48.745Z,8.90
2023-01-21T14:48:41.080Z,9.90
2023-01-21T14:51:07.752Z,7.00
2023-01-21T14:53:50.955Z,8.90
2023-01-21T14:56:31.853Z,9.70
2023-01-21T14:59:20.693Z,9.30
2023-01-21T15:01:47.845Z,7.70
2023-01-21T15:04:39.832Z,8.60
2023-01-21T15:07:12.910Z,11.70
2023-01-21T15:09:49.546Z,10.90
2023-01-21T15:12:27.763Z,10.80
2023-01-21T15:15:00.157Z,10.00
2023-01-21T15:17:56.929Z,8.80
2023-01-21T15:20:44.728Z,8.20
2023-01-21T15:23:17.354Z,7.90
2023-01-21T15:26:10.602Z,8.40
2023-01-21T15:28:46.081Z,8.30
2023-01-21T15:31:40.948Z,8.50
2023-01-21T15:34:17.585Z,11.30
2023-01-21T15:36:47.636Z,15.60
2023-01-21T15:39:17.179Z,14.70
2023-01-21T15:42:06.790Z,15.00
2023-01-21T15:44:55.456Z,10.90
2023-01-21T15:47:50.447Z,12.50
2023-01-21T15:50:23.899Z,13.20
2023-01-21T15:53:12.393Z,13.10
2023-01-21T15:56:09.157Z,15.80
2023-01-21T15:58:35.720Z,18.50
2023-01-21T16:01:11.352Z,11.70
2023-01-21T16:03:44.589Z,14.40
2023-01-21T16:06:26.909Z,14.60
2023-01-21T16:09:18.488Z,13.80
2023-01-21T16:11:47.719Z,12.70
2023-01-21T16:14:34.897Z,16.20
2023-01-21T16:17:10.310Z,13.70
2023-01-21T16:19:44.705Z,16.90
2023-01-21T16:22:16.803Z,21.50
2023-01-21T16:24:52.759Z,19.60
2023-01-21T16:27:25.808Z,14.20
2023-01-21T16:29:56.313Z,13.80
2023-01-21T16:32:23.531Z,14.90
2023-01-21T16:34:50.196Z,12.00
2023-01-21T16:37:23.291Z,13.40
2023-01-21T16:39:54.539Z,14.80
2023-01-21T16:42:23.397Z,16.10
2023-01-21T16:44:50.713Z,10.90
2023-01-21T16:47:32.616Z,25.50
2023-01-21T16:50:00.338Z,12.30
2023-01-21T16:52:27.691Z,11.70
2023-01-21T16:54:55.104Z,12.70
2023-01-21T16:57:30.942Z,12.10
2023-01-21T17:00:01.492Z,15.90
2023-01-21T17:02:30.939Z,20.30
2023-01-21T17:05:04.291Z,14.20
2023-01-21T17:07:36.884Z,14.00
2023-01-21T17:10:16.755Z,12.80
2023-01-21T17:12:53.931Z,13.50
2023-01-21T17:15:29.646Z,13.70
2023-01-21T17:17:59.554Z,16.40
2023-01-21T17:20:34.705Z,14.40
2023-01-21T17:23:05.803Z,14.10
2023-01-21T17:25:35.048Z,22.40
2023-01-21T17:28:27.783Z,17.50
2023-01-21T17:31:15.635Z,28.60
2023-01-21T17:33:43.692Z,17.50
2023-01-21T17:36:15.441Z,16.50
2023-01-21T17:38:44.163Z,23.30
2023-01-21T17:41:22.845Z,16.40
2023-01-21T17:43:51.437Z,17.80
2023-01-21T17:46:22.417Z,15.50
2023-01-21T17:48:57.404Z,17.60
2023-01-21T17:51:27.709Z,21.90
2023-01-21T17:54:01.400Z,17.80
2023-01-21T17:59:36.930Z,15.40
2023-01-21T18:02:24.028Z,18.20
2023-01-21T18:04:51.169Z,17.40
2023-01-21T18:07:22.139Z,22.60
2023-01-21T18:09:53.847Z,23.30
2023-01-21T18:12:20.559Z,20.10
2023-01-21T18:14:47.266Z,22.40
2023-01-21T18:17:19.394Z,19.60
2023-01-21T18:19:46.011Z,19.90
2023-01-21T18:22:27.601Z,21.10
2023-01-21T18:24:54.868Z,19.90
2023-01-21T18:27:25.681Z,20.40
2023-01-21T18:29:53.882Z,20.60
2023-01-21T18:32:20.562Z,25.50
2023-01-21T18:34:47.133Z,20.60
2023-01-21T18:37:16.954Z,19.80
2023-01-21T18:39:43.885Z,19.50
2023-01-21T18:42:17.155Z,20.80
2023-01-21T18:44:44.143Z,20.40
2023-01-21T18:47:16.273Z,19.50
2023-01-21T18:49:43.875Z,19.10
2023-01-21T18:52:14.009Z,18.70
2023-01-21T18:54:40.801Z,20.20
2023-01-21T18:57:20.729Z,23.90
2023-01-21T18:59:47.376Z,20.90
2023-01-21T19:02:17.538Z,20.10
2023-01-21T19:04:44.800Z,22.10
2023-01-21T19:07:16.874Z,20.30
2023-01-21T19:09:46.255Z,21.60
2023-01-21T19:12:14.706Z,20.50
2023-01-21T19:14:41.238Z,25.30
2023-01-21T19:17:25.428Z,22.10
2023-01-21T19:19:56.053Z,21.00
2023-01-21T19:22:22.818Z,21.70
2023-01-21T19:24:49.714Z,24.90
2023-01-21T19:27:27.490Z,23.70
2023-01-21T19:29:54.655Z,30.60
2023-01-21T19:32:21.494Z,22.30
2023-01-21T19:34:47.951Z,25.90
2023-01-21T19:37:17.506Z,25.50
2023-01-21T19:39:44.045Z,22.90
2023-01-21T19:42:12.628Z,26.20
2023-01-21T19:44:40.005Z,22.00
2023-01-21T19:47:17.816Z,36.00
2023-01-21T19:49:44.868Z,27.10
2023-01-21T19:52:13.820Z,31.90
2023-01-21T19:54:40.291Z,28.60
2023-01-21T19:57:13.729Z,27.60
2023-01-21T19:59:41.898Z,34.30
2023-01-21T20:02:10.708Z,35.20
2023-01-21T20:04:37.401Z,34.60
2023-01-21T20:07:04.524Z,35.40
2023-01-21T20:09:32.021Z,34.90
2023-01-21T20:11:58.949Z,29.30
2023-01-21T20:14:25.674Z,32.80
2023-01-21T20:16:53.538Z,35.50
2023-01-21T20:19:21.963Z,37.30
2023-01-21T20:22:01.269Z,35.50
2023-01-21T20:24:29.439Z,34.80
2023-01-21T20:26:56.226Z,35.30
2023-01-21T20:29:22.789Z,40.80
2023-01-21T20:31:51.163Z,37.00
2023-01-21T20:34:17.744Z,47.20
2023-01-21T20:36:47.701Z,35.20
2023-01-21T20:39:14.599Z,34.40
2023-01-21T20:41:42.663Z,53.70
2023-01-21T20:44:09.639Z,37.80
2023-01-21T20:46:36.193Z,41.60
2023-01-21T20:49:02.984Z,63.10
2023-01-21T20:51:29.780Z,34.00
2023-01-21T20:53:56.340Z,45.00
2023-01-21T20:56:32.500Z,73.30
2023-01-21T20:58:59.177Z,77.90
2023-01-21T21:01:27.033Z,53.40
2023-01-21T21:03:53.615Z,81.30
2023-01-21T21:06:23.229Z,75.20
2023-01-21T21:08:50.389Z,61.40
2023-01-21T21:11:17.968Z,69.10
2023-01-21T21:13:47.519Z,68.80
2023-01-21T21:16:20.420Z,76.00
2023-01-21T21:18:47.952Z,47.10
2023-01-21T21:21:15.861Z,48.30
2023-01-21T21:23:46.017Z,58.50
2023-01-21T21:26:23.941Z,85.50
2023-01-21T21:28:55.218Z,91.80
2023-01-21T21:31:23.108Z,77.80
2023-01-21T21:33:50.630Z,57.20
2023-01-21T21:36:19.631Z,92.50
2023-01-21T21:38:46.734Z,74.00
2023-01-21T21:41:37.396Z,100.40
2023-01-21T21:44:05.333Z,96.00
2023-01-21T21:46:50.743Z,100.70
2023-01-21T21:49:17.233Z,77.00
2023-01-21T21:51:45.789Z,68.90
2023-01-21T21:54:14.399Z,95.20
2023-01-21T21:56:41.888Z,103.00
2023-01-21T21:59:08.546Z,94.60
2023-01-21T22:01:35.310Z,83.60
2023-01-21T22:04:03.596Z,126.20
2023-01-21T22:06:30.812Z,103.70
2023-01-21T22:09:00.215Z,100.90
2023-01-21T22:11:28.230Z,95.40
2023-01-21T22:13:56.282Z,98.20
2023-01-21T22:16:26.436Z,62.80
2023-01-21T22:18:53.610Z,126.70
2023-01-21T22:21:26.706Z,71.30
2023-01-21T22:23:54.087Z,68.60
2023-01-21T22:26:23.109Z,129.40
2023-01-21T22:28:52.457Z,151.70
2023-01-21T22:31:25.417Z,158.20
2023-01-21T22:33:52.727Z,134.20
2023-01-21T22:36:22.038Z,91.10
2023-01-21T22:38:49.225Z,82.70
2023-01-21T22:41:19.379Z,64.70
2023-01-21T22:43:50.079Z,123.00
2023-01-21T22:46:20.914Z,147.50
2023-01-21T22:48:48.230Z,83.50
2023-01-21T22:51:17.842Z,151.20
2023-01-21T22:53:44.567Z,141.20
2023-01-21T22:56:13.660Z,150.70
2023-01-21T22:58:40.181Z,125.70
2023-01-21T23:01:07.706Z,129.60
2023-01-21T23:03:34.317Z,105.90
2023-01-21T23:06:07.799Z,147.80
2023-01-21T23:11:05.739Z,158.70
2023-01-21T23:13:32.912Z,78.70
2023-01-21T23:16:00.438Z,170.50
2023-01-21T23:18:28.331Z,62.90
2023-01-21T23:20:55.578Z,244.30
2023-01-21T23:23:23.988Z,102.70
2023-01-21T23:25:50.714Z,82.70
2023-01-21T23:28:17.234Z,89.30
2023-01-21T23:30:43.891Z,155.20
2023-01-21T23:33:11.431Z,129.20
2023-01-21T23:35:37.957Z,76.20
2023-01-21T23:38:04.499Z,97.00
2023-01-21T23:40:31.045Z,98.90
2023-01-21T23:42:57.595Z,84.10
2023-01-21T23:45:24.120Z,147.10
2023-01-21T23:47:50.696Z,66.60
2023-01-21T23:50:17.412Z,135.90
2023-01-21T23:52:44.131Z,111.30
2023-01-21T23:55:10.985Z,149.70
2023-01-21T23:57:37.521Z,140.80
